createdAt,value
2019-03-03T00:01:19.575Z,9.57
2019-03-03T00:03:50.729Z,9.59
2019-03-03T00:06:21.658Z,9.60
2019-03-03T00:08:52.573Z,9.69
2019-03-03T00:11:23.345Z,9.65
2019-03-03T00:13:54.231Z,9.72
2019-03-03T00:16:25.110Z,9.69
2019-03-03T00:18:56.041Z,9.71
2019-03-03T00:21:27.149Z,9.70
2019-03-03T00:23:58.025Z,9.75
2019-03-03T00:26:28.878Z,9.70
2019-03-03T00:28:59.858Z,9.71
2019-03-03T00:31:41.084Z,9.71
2019-03-03T00:34:12.176Z,9.67
2019-03-03T00:37:17.199Z,9.61
2019-03-03T00:40:07.050Z,9.62
2019-03-03T00:43:05.944Z,9.61
2019-03-03T00:46:00.947Z,9.60
2019-03-03T00:48:51.854Z,9.61
2019-03-03T00:51:32.112Z,9.52
2019-03-03T00:54:14.211Z,9.53
2019-03-03T00:56:53.137Z,9.45
2019-03-03T00:59:58.585Z,9.39
2019-03-03T01:02:43.081Z,9.35
2019-03-03T01:05:33.024Z,9.26
2019-03-03T01:08:23.215Z,9.21
2019-03-03T01:11:13.257Z,9.15
2019-03-03T01:14:12.138Z,9.15
2019-03-03T01:17:02.053Z,9.20
2019-03-03T01:19:50.634Z,9.26
2019-03-03T01:22:46.047Z,9.40
2019-03-03T01:25:17.792Z,9.34
2019-03-03T01:27:48.778Z,9.37
2019-03-03T01:30:19.760Z,9.33
2019-03-03T01:32:50.525Z,9.32
2019-03-03T01:35:21.506Z,9.36
2019-03-03T01:37:52.450Z,9.34
2019-03-03T01:40:23.325Z,9.35
2019-03-03T01:42:54.285Z,9.36
2019-03-03T01:45:25.097Z,9.40
2019-03-03T01:47:56.275Z,9.39
2019-03-03T01:50:27.176Z,9.41
2019-03-03T01:52:58.194Z,9.44
2019-03-03T01:55:29.108Z,9.38
2019-03-03T01:57:59.896Z,9.30
2019-03-03T02:00:30.961Z,9.27
2019-03-03T02:03:01.996Z,9.34
2019-03-03T02:05:33.071Z,9.29
2019-03-03T02:08:04.057Z,9.29
2019-03-03T02:10:35.138Z,9.27
2019-03-03T02:13:06.217Z,9.27
2019-03-03T02:15:37.047Z,9.28
2019-03-03T02:18:08.123Z,9.30
2019-03-03T02:20:39.195Z,9.35
2019-03-03T02:23:10.017Z,9.39
2019-03-03T02:25:41.499Z,9.45
2019-03-03T02:28:12.385Z,9.39
2019-03-03T02:30:43.381Z,9.44
2019-03-03T02:33:14.492Z,9.36
2019-03-03T02:35:46.180Z,9.40
2019-03-03T02:38:17.081Z,9.41
2019-03-03T02:40:48.043Z,9.42
2019-03-03T02:43:18.941Z,9.42
2019-03-03T02:45:49.924Z,9.42
2019-03-03T02:48:20.822Z,9.44
2019-03-03T02:50:51.827Z,9.45
2019-03-03T02:53:23.272Z,9.47
2019-03-03T02:55:54.989Z,9.51
2019-03-03T02:58:25.815Z,9.50
2019-03-03T03:01:03.715Z,9.51
2019-03-03T03:03:34.646Z,9.54
2019-03-03T03:06:27.416Z,9.59
2019-03-03T03:09:13.303Z,9.56
2019-03-03T03:12:03.078Z,9.67
2019-03-03T03:15:11.284Z,9.63
2019-03-03T03:18:03.930Z,9.70
2019-03-03T03:20:52.275Z,9.63
2019-03-03T03:23:33.007Z,9.60
2019-03-03T03:26:31.188Z,9.58
2019-03-03T03:29:19.775Z,9.54
2019-03-03T03:32:18.689Z,9.57
2019-03-03T03:35:11.608Z,9.51
2019-03-03T03:37:58.743Z,9.48
2019-03-03T03:40:41.048Z,9.46
2019-03-03T03:43:21.612Z,9.42
2019-03-03T03:46:26.751Z,9.42
2019-03-03T03:49:16.534Z,9.41
2019-03-03T03:52:06.314Z,9.45
2019-03-03T03:54:56.195Z,9.43
2019-03-03T03:57:34.711Z,9.65
2019-03-03T04:00:28.281Z,9.58
2019-03-03T04:03:22.067Z,9.52
2019-03-03T04:06:03.557Z,9.53
2019-03-03T04:08:53.424Z,9.54
2019-03-03T04:11:32.928Z,9.55
2019-03-03T04:14:32.262Z,9.50
2019-03-03T04:17:17.748Z,9.45
2019-03-03T04:20:06.818Z,9.42
2019-03-03T04:22:45.648Z,9.34
2019-03-03T04:25:41.662Z,9.29
2019-03-03T04:28:31.445Z,9.28
2019-03-03T04:31:20.099Z,9.23
2019-03-03T04:33:57.280Z,9.29
2019-03-03T04:36:47.163Z,9.30
2019-03-03T04:39:23.119Z,9.22
2019-03-03T04:42:12.899Z,9.17
2019-03-03T04:45:05.343Z,9.17
2019-03-03T04:48:01.370Z,9.13
2019-03-03T04:50:54.017Z,9.15
2019-03-03T04:53:53.016Z,9.20
2019-03-03T04:56:42.797Z,9.20
2019-03-03T04:59:41.590Z,9.22
2019-03-03T05:02:37.714Z,9.14
2019-03-03T05:05:34.765Z,9.26
2019-03-03T05:08:24.648Z,9.37
2019-03-03T05:11:25.081Z,9.26
2019-03-03T05:14:15.679Z,9.29
2019-03-03T05:17:14.572Z,9.28
2019-03-03T05:19:49.676Z,9.45
2019-03-03T05:22:50.068Z,9.34
2019-03-03T05:25:23.042Z,9.40
2019-03-03T05:27:54.065Z,9.35
2019-03-03T05:30:25.205Z,9.39
2019-03-03T05:32:56.167Z,9.32
2019-03-03T05:35:54.528Z,9.32
2019-03-03T05:38:25.425Z,9.30
2019-03-03T05:40:56.346Z,9.33
2019-03-03T05:43:27.132Z,9.32
2019-03-03T05:45:58.145Z,9.30
2019-03-03T05:48:38.704Z,9.30
2019-03-03T05:51:09.518Z,9.25
2019-03-03T05:53:40.316Z,9.18
2019-03-03T05:56:11.285Z,9.19
2019-03-03T05:58:42.201Z,9.26
2019-03-03T06:01:39.962Z,9.18
2019-03-03T06:04:12.345Z,9.19
2019-03-03T06:06:43.415Z,9.14
2019-03-03T06:09:14.308Z,9.11
2019-03-03T06:11:45.198Z,9.11
2019-03-03T06:14:16.078Z,9.08
2019-03-03T06:16:56.752Z,9.10
2019-03-03T06:19:27.585Z,9.08
2019-03-03T06:21:58.765Z,9.12
2019-03-03T06:24:29.587Z,9.09
2019-03-03T06:27:00.570Z,9.06
2019-03-03T06:29:31.355Z,9.05
2019-03-03T06:32:02.317Z,9.12
2019-03-03T06:34:33.114Z,9.08
2019-03-03T06:37:04.110Z,9.09
2019-03-03T06:39:35.009Z,9.15
2019-03-03T06:42:06.108Z,9.21
2019-03-03T06:44:36.891Z,9.22
2019-03-03T06:47:07.833Z,9.19
2019-03-03T06:49:38.650Z,9.23
2019-03-03T06:52:09.589Z,9.24
2019-03-03T06:54:59.526Z,9.26
2019-03-03T06:57:30.055Z,9.32
2019-03-03T07:00:00.949Z,9.31
2019-03-03T07:02:32.030Z,9.35
2019-03-03T07:05:03.022Z,9.40
2019-03-03T07:07:55.566Z,9.48
2019-03-03T07:10:26.412Z,9.49
2019-03-03T07:12:57.389Z,9.52
2019-03-03T07:15:28.182Z,9.56
2019-03-03T07:17:59.070Z,9.56
2019-03-03T07:20:56.976Z,9.63
2019-03-03T07:23:27.988Z,9.63
2019-03-03T07:25:58.872Z,9.73
2019-03-03T07:28:29.756Z,9.84
2019-03-03T07:31:00.536Z,9.89
2019-03-03T07:33:54.515Z,9.95
2019-03-03T07:36:25.465Z,10.03
2019-03-03T07:38:56.341Z,10.02
2019-03-03T07:41:27.230Z,10.07
2019-03-03T07:43:58.205Z,10.11
2019-03-03T07:46:29.014Z,10.20
2019-03-03T07:51:55.057Z,10.19
2019-03-03T07:54:26.031Z,10.17
2019-03-03T07:56:56.824Z,10.15
2019-03-03T07:59:27.662Z,10.21
2019-03-03T08:01:58.641Z,10.26
2019-03-03T08:04:29.932Z,10.39
2019-03-03T08:07:00.838Z,10.42
2019-03-03T08:09:31.615Z,10.41
2019-03-03T08:12:02.595Z,10.47
2019-03-03T08:14:33.724Z,10.42
2019-03-03T08:17:13.082Z,10.42
2019-03-03T08:19:44.908Z,10.47
2019-03-03T08:22:16.087Z,10.64
2019-03-03T08:24:46.910Z,10.70
2019-03-03T08:27:17.918Z,10.84
2019-03-03T08:30:07.308Z,10.81
2019-03-03T08:32:38.290Z,10.88
2019-03-03T08:35:10.814Z,10.98
2019-03-03T08:37:41.848Z,11.18
2019-03-03T08:40:13.101Z,11.34
2019-03-03T08:43:29.777Z,11.33
2019-03-03T08:46:15.488Z,11.34
2019-03-03T08:49:04.043Z,11.31
2019-03-03T08:51:59.657Z,11.24
2019-03-03T08:54:46.137Z,11.17
2019-03-03T08:57:35.847Z,11.10
2019-03-03T09:00:26.648Z,11.24
2019-03-03T09:03:17.346Z,11.49
2019-03-03T09:05:55.310Z,11.86
2019-03-03T09:08:37.244Z,12.03
2019-03-03T09:11:16.477Z,12.05
2019-03-03T09:14:06.257Z,12.12
2019-03-03T09:16:56.038Z,12.37
2019-03-03T09:19:44.298Z,12.28
2019-03-03T09:22:37.136Z,12.21
2019-03-03T09:25:25.789Z,12.03
2019-03-03T09:28:23.455Z,12.02
2019-03-03T09:31:13.214Z,11.86
2019-03-03T09:34:14.996Z,11.85
2019-03-03T09:37:20.114Z,11.79
2019-03-03T09:40:25.533Z,11.98
2019-03-03T09:43:09.954Z,12.30
2019-03-03T09:46:03.118Z,12.50
2019-03-03T09:48:56.157Z,12.44
2019-03-03T09:51:37.639Z,12.35
2019-03-03T09:54:33.564Z,12.35
2019-03-03T09:57:23.962Z,12.26
2019-03-03T10:00:12.716Z,12.38
2019-03-03T10:02:53.283Z,12.22
2019-03-03T10:05:29.953Z,12.34
2019-03-03T10:08:09.532Z,12.44
2019-03-03T10:10:58.249Z,12.52
2019-03-03T10:13:44.653Z,12.63
2019-03-03T10:16:32.150Z,12.80
2019-03-03T10:19:34.319Z,13.01
2019-03-03T10:22:36.109Z,13.01
2019-03-03T10:25:28.042Z,13.18
2019-03-03T10:28:14.115Z,13.61
2019-03-03T10:31:16.306Z,13.95
2019-03-03T10:34:15.406Z,14.02
2019-03-03T10:37:08.257Z,13.78
2019-03-03T10:39:47.592Z,14.00
2019-03-03T10:42:37.478Z,14.09
2019-03-03T10:45:34.937Z,13.80
2019-03-03T10:48:24.102Z,13.96
2019-03-03T10:51:20.538Z,13.83
2019-03-03T10:54:05.916Z,13.89
2019-03-03T10:56:53.136Z,13.47
2019-03-03T10:59:41.588Z,13.32
2019-03-03T11:02:21.843Z,13.52
2019-03-03T11:05:11.725Z,13.58
2019-03-03T11:07:53.518Z,13.63
2019-03-03T11:10:57.345Z,13.66
2019-03-03T11:13:39.531Z,14.00
2019-03-03T11:16:27.918Z,14.28
2019-03-03T11:19:11.372Z,14.07
2019-03-03T11:22:13.230Z,13.94
2019-03-03T11:24:59.781Z,14.03
2019-03-03T11:27:41.022Z,14.01
2019-03-03T11:30:44.972Z,13.90
2019-03-03T11:33:35.777Z,13.61
2019-03-03T11:36:24.534Z,13.33
2019-03-03T11:39:20.559Z,13.38
2019-03-03T11:42:19.844Z,13.49
2019-03-03T11:44:58.954Z,13.65
2019-03-03T11:48:04.161Z,13.80
2019-03-03T11:50:52.277Z,13.88
2019-03-03T11:53:38.375Z,14.01
2019-03-03T11:56:14.735Z,14.13
2019-03-03T11:59:08.102Z,14.12
2019-03-03T12:02:01.264Z,14.26
2019-03-03T12:04:49.915Z,14.28
2019-03-03T12:07:54.862Z,14.42
2019-03-03T12:10:37.834Z,14.53
2019-03-03T12:13:42.325Z,14.13
2019-03-03T12:16:39.513Z,14.20
2019-03-03T12:19:38.858Z,14.32
2019-03-03T12:22:25.563Z,14.52
2019-03-03T12:25:14.221Z,14.45
2019-03-03T12:28:16.492Z,14.28
2019-03-03T12:31:08.626Z,14.42
2019-03-03T12:33:55.831Z,14.42
2019-03-03T12:36:44.398Z,14.39
2019-03-03T12:39:34.386Z,14.38
2019-03-03T12:42:42.494Z,14.29
2019-03-03T12:45:29.206Z,14.48
2019-03-03T12:48:10.243Z,14.20
2019-03-03T12:51:09.479Z,14.19
2019-03-03T12:53:57.830Z,14.05
2019-03-03T12:56:56.745Z,13.94
2019-03-03T12:59:39.435Z,13.99
2019-03-03T13:02:47.981Z,14.11
2019-03-03T13:05:46.644Z,14.07
2019-03-03T13:08:34.889Z,13.94
2019-03-03T13:11:23.748Z,13.78
2019-03-03T13:14:06.258Z,13.96
2019-03-03T13:16:43.136Z,13.94
2019-03-03T13:19:31.482Z,13.88
2019-03-03T13:22:19.830Z,13.87
2019-03-03T13:25:09.479Z,14.00
2019-03-03T13:27:47.102Z,13.98
2019-03-03T13:30:46.302Z,13.99
2019-03-03T13:33:34.956Z,13.74
2019-03-03T13:36:22.997Z,13.75
2019-03-03T13:39:12.265Z,13.85
2019-03-03T13:42:07.914Z,13.93
2019-03-03T13:44:38.727Z,13.93
2019-03-03T13:47:09.810Z,13.91
2019-03-03T13:49:40.602Z,13.93
2019-03-03T13:52:11.670Z,13.94
2019-03-03T13:54:42.466Z,13.85
2019-03-03T13:57:13.670Z,14.02
2019-03-03T13:59:44.562Z,14.01
2019-03-03T14:02:16.111Z,14.04
2019-03-03T14:04:46.956Z,14.29
2019-03-03T14:07:17.835Z,14.46
2019-03-03T14:09:48.714Z,14.41
2019-03-03T14:12:19.598Z,14.40
2019-03-03T14:14:50.384Z,14.49
2019-03-03T14:17:21.269Z,14.51
2019-03-03T14:19:52.171Z,14.60
2019-03-03T14:22:23.207Z,14.52
2019-03-03T14:24:54.058Z,14.56
2019-03-03T14:27:25.053Z,14.63
2019-03-03T14:29:55.937Z,14.47
2019-03-03T14:32:26.900Z,14.38
2019-03-03T14:34:57.786Z,14.40
2019-03-03T14:37:28.728Z,14.42
2019-03-03T14:39:59.778Z,14.37
2019-03-03T14:42:30.726Z,14.27
2019-03-03T14:45:01.711Z,14.26
2019-03-03T14:47:32.498Z,14.25
2019-03-03T14:50:03.673Z,14.24
2019-03-03T14:52:34.581Z,14.31
2019-03-03T14:55:05.985Z,14.24
2019-03-03T14:57:36.759Z,14.23
2019-03-03T15:00:37.981Z,14.11
2019-03-03T15:03:09.357Z,13.97
2019-03-03T15:05:41.370Z,13.95
2019-03-03T15:08:12.276Z,13.88
2019-03-03T15:10:43.265Z,13.85
2019-03-03T15:13:15.972Z,13.77
2019-03-03T15:15:46.938Z,13.66
2019-03-03T15:18:18.871Z,13.67
2019-03-03T15:20:49.945Z,13.69
2019-03-03T15:23:20.870Z,13.65
2019-03-03T15:25:51.861Z,13.67
2019-03-03T15:28:22.726Z,13.67
2019-03-03T15:30:53.881Z,13.74
2019-03-03T15:33:24.830Z,13.78
2019-03-03T15:36:20.403Z,13.92
2019-03-03T15:38:51.526Z,13.89
2019-03-03T15:41:22.458Z,13.92
2019-03-03T15:43:53.367Z,13.90
2019-03-03T15:46:29.530Z,13.91
2019-03-03T15:49:10.181Z,13.91
2019-03-03T15:51:45.530Z,13.80
2019-03-03T15:54:22.826Z,13.75
2019-03-03T15:56:53.799Z,13.71
2019-03-03T15:59:24.718Z,13.66
2019-03-03T16:01:55.690Z,13.64
2019-03-03T16:04:26.574Z,13.65
2019-03-03T16:06:57.414Z,13.67
2019-03-03T16:09:28.295Z,13.65
2019-03-03T16:11:59.075Z,13.66
2019-03-03T16:14:29.947Z,13.68
2019-03-03T16:17:00.861Z,13.60
2019-03-03T16:19:32.354Z,13.59
2019-03-03T16:22:03.137Z,13.50
2019-03-03T16:24:46.875Z,13.47
2019-03-03T16:27:17.826Z,13.46
2019-03-03T16:29:48.702Z,13.35
2019-03-03T16:32:19.487Z,13.33
2019-03-03T16:34:50.560Z,13.28
2019-03-03T16:37:21.459Z,13.32
2019-03-03T16:39:53.706Z,13.37
2019-03-03T16:42:24.594Z,13.30
2019-03-03T16:44:55.370Z,13.23
2019-03-03T16:47:26.258Z,13.31
2019-03-03T16:49:57.232Z,13.17
2019-03-03T16:52:28.380Z,13.07
2019-03-03T16:54:59.307Z,12.91
2019-03-03T16:57:30.103Z,12.70
2019-03-03T17:00:01.104Z,12.48
2019-03-03T17:02:33.515Z,12.39
2019-03-03T17:05:04.967Z,12.05
2019-03-03T17:07:35.905Z,11.79
2019-03-03T17:10:07.469Z,11.62
2019-03-03T17:12:38.611Z,11.54
2019-03-03T17:15:12.088Z,11.52
2019-03-03T17:17:43.053Z,11.53
2019-03-03T17:20:14.050Z,11.48
2019-03-03T17:22:44.831Z,11.52
2019-03-03T17:25:17.447Z,11.45
2019-03-03T17:27:48.338Z,11.47
2019-03-03T17:30:20.810Z,11.49
2019-03-03T17:32:51.755Z,11.43
2019-03-03T17:35:22.803Z,11.39
2019-03-03T17:37:53.764Z,11.25
2019-03-03T17:40:24.660Z,11.21
2019-03-03T17:42:55.648Z,11.13
2019-03-03T17:45:26.714Z,11.03
2019-03-03T17:47:57.534Z,11.01
2019-03-03T17:50:28.518Z,10.89
2019-03-03T17:52:59.622Z,10.81
2019-03-03T17:55:30.397Z,10.81
2019-03-03T17:58:01.863Z,10.73
2019-03-03T18:00:34.686Z,10.68
2019-03-03T18:03:05.702Z,10.61
2019-03-03T18:05:36.626Z,10.62
2019-03-03T18:08:07.870Z,10.61
2019-03-03T18:10:38.794Z,10.65
2019-03-03T18:13:09.681Z,10.75
2019-03-03T18:15:40.668Z,10.72
2019-03-03T18:18:11.459Z,10.73
2019-03-03T18:20:42.345Z,10.67
2019-03-03T18:23:14.342Z,10.57
2019-03-03T18:25:45.413Z,10.49
2019-03-03T18:28:16.338Z,10.56
2019-03-03T18:30:47.222Z,10.60
2019-03-03T18:33:18.205Z,10.64
2019-03-03T18:35:49.203Z,10.63
2019-03-03T18:38:20.245Z,10.51
2019-03-03T18:40:51.238Z,10.47
2019-03-03T18:43:22.234Z,10.48
2019-03-03T18:45:53.204Z,10.55
2019-03-03T18:48:23.905Z,10.54
2019-03-03T18:50:54.674Z,10.52
2019-03-03T18:53:26.507Z,10.56
2019-03-03T18:55:57.685Z,10.58
2019-03-03T18:58:29.591Z,10.62
2019-03-03T19:01:00.768Z,10.55
2019-03-03T19:03:31.886Z,10.58
2019-03-03T19:06:02.887Z,10.63
2019-03-03T19:08:33.769Z,10.57
2019-03-03T19:11:05.083Z,10.60
2019-03-03T19:13:36.055Z,10.64
2019-03-03T19:16:31.642Z,10.65
2019-03-03T19:19:06.598Z,10.76
2019-03-03T19:21:37.633Z,10.79
2019-03-03T19:24:08.486Z,10.85
2019-03-03T19:26:39.558Z,10.93
2019-03-03T19:29:10.550Z,11.02
2019-03-03T19:31:41.536Z,11.10
2019-03-03T19:34:12.426Z,11.05
2019-03-03T19:36:43.610Z,11.13
2019-03-03T19:39:14.511Z,11.20
2019-03-03T19:41:45.394Z,11.39
2019-03-03T19:44:17.638Z,11.38
2019-03-03T19:46:48.469Z,11.33
2019-03-03T19:49:19.246Z,11.40
2019-03-03T19:51:50.343Z,11.53
2019-03-03T19:54:21.373Z,11.61
2019-03-03T19:56:52.124Z,11.58
2019-03-03T19:59:23.317Z,11.52
2019-03-03T20:01:54.098Z,11.46
2019-03-03T20:04:25.092Z,11.35
2019-03-03T20:06:55.987Z,11.36
2019-03-03T20:09:26.957Z,11.40
2019-03-03T20:11:57.843Z,11.35
2019-03-03T20:14:28.886Z,11.33
2019-03-03T20:16:59.839Z,11.33
2019-03-03T20:19:30.607Z,11.35
2019-03-03T20:22:01.407Z,11.36
2019-03-03T20:24:32.398Z,11.34
2019-03-03T20:27:03.183Z,11.41
2019-03-03T20:29:34.147Z,11.41
2019-03-03T20:32:05.147Z,11.49
2019-03-03T20:34:36.145Z,11.53
2019-03-03T20:37:08.041Z,11.56
2019-03-03T20:39:39.010Z,11.57
2019-03-03T20:42:11.270Z,11.65
2019-03-03T20:44:42.242Z,11.70
2019-03-03T20:47:13.050Z,11.68
2019-03-03T20:49:43.837Z,11.66
2019-03-03T20:52:14.697Z,11.69
2019-03-03T20:54:45.597Z,11.73
2019-03-03T20:57:16.374Z,11.69
2019-03-03T20:59:46.966Z,11.70
2019-03-03T21:02:18.174Z,11.76
2019-03-03T21:04:49.038Z,11.66
2019-03-03T21:07:19.583Z,11.59
2019-03-03T21:09:50.560Z,11.50
2019-03-03T21:12:21.495Z,11.46
2019-03-03T21:14:52.491Z,11.25
2019-03-03T21:17:23.271Z,11.17
2019-03-03T21:19:54.156Z,10.91
2019-03-03T21:22:25.084Z,10.79
2019-03-03T21:24:56.037Z,10.75
2019-03-03T21:27:26.824Z,10.68
2019-03-03T21:29:57.807Z,10.61
2019-03-03T21:32:28.596Z,10.53
2019-03-03T21:34:59.588Z,10.46
2019-03-03T21:37:30.372Z,10.40
2019-03-03T21:40:01.377Z,10.35
2019-03-03T21:42:33.898Z,10.28
2019-03-03T21:45:05.300Z,10.17
2019-03-03T21:47:37.299Z,10.04
2019-03-03T21:50:09.909Z,9.98
2019-03-03T21:52:42.828Z,9.92
2019-03-03T21:55:15.263Z,9.89
2019-03-03T21:57:46.081Z,9.86
2019-03-03T22:00:36.741Z,9.88
2019-03-03T22:03:08.009Z,9.90
2019-03-03T22:05:38.814Z,9.92
2019-03-03T22:08:09.694Z,9.94
2019-03-03T22:10:40.593Z,9.85
2019-03-03T22:13:12.909Z,9.81
2019-03-03T22:15:43.897Z,9.71
2019-03-03T22:18:14.800Z,9.71
2019-03-03T22:20:46.806Z,9.65
2019-03-03T22:23:17.593Z,9.58
2019-03-03T22:25:48.579Z,9.41
2019-03-03T22:28:19.753Z,9.27
2019-03-03T22:30:50.666Z,9.11
2019-03-03T22:33:21.540Z,8.95
2019-03-03T22:35:52.581Z,8.91
2019-03-03T22:38:23.630Z,8.94
2019-03-03T22:40:54.561Z,8.96
2019-03-03T22:43:25.405Z,8.87
2019-03-03T22:45:56.378Z,8.79
2019-03-03T22:48:27.161Z,8.70
2019-03-03T22:50:58.142Z,8.70
2019-03-03T22:53:28.941Z,8.74
2019-03-03T22:55:59.829Z,8.81
2019-03-03T22:58:30.913Z,8.82
2019-03-03T23:01:17.326Z,8.76
2019-03-03T23:04:06.501Z,8.73
2019-03-03T23:06:42.032Z,8.72
2019-03-03T23:09:47.625Z,8.74
2019-03-03T23:13:08.967Z,8.84
2019-03-03T23:16:23.982Z,8.92
2019-03-03T23:19:28.321Z,8.91
2019-03-03T23:22:28.120Z,8.86
2019-03-03T23:25:49.440Z,8.76
2019-03-03T23:28:21.915Z,8.75
2019-03-03T23:30:53.840Z,8.70
2019-03-03T23:33:24.721Z,8.57
2019-03-03T23:35:56.421Z,8.51
2019-03-03T23:38:27.298Z,8.46
2019-03-03T23:40:58.578Z,8.45
2019-03-03T23:43:29.436Z,8.44
2019-03-03T23:46:00.425Z,8.45
2019-03-03T23:48:31.318Z,8.38
2019-03-03T23:51:02.161Z,8.32
2019-03-03T23:53:32.951Z,8.37
2019-03-03T23:56:04.056Z,8.36
2019-03-03T23:58:35.133Z,8.33
